Time;durP1;ratioP1;P1;durP2;ratioP2;P2;SDS_P1;SDS_P2;PMS_P1;PMS_P2;Temp;Humidity;BMP_temperature;BMP_pressure;BME280_temperature;BME280_humidity;BME280_pressure;Samples;Min_cycle;Max_cycle;Signal;HPM_P1;HPM_P2
2023/06/21 00:00:12;;;;;;;;;4.33;4.00;;;;;28.53;46.22;101204.47;5076929;27;45402;-72
2023/06/21 00:02:39;;;;;;;;;5.00;4.00;;;;;28.52;46.40;101205.50;5076423;28;45465;-72
2023/06/21 00:05:06;;;;;;;;;4.33;3.67;;;;;28.51;46.05;101209.22;5076281;28;46543;-72
2023/06/21 00:07:31;;;;;;;;;3.67;3.67;;;;;28.52;46.51;101219.69;5076184;28;45968;-72
2023/06/21 00:09:57;;;;;;;;;3.67;3.67;;;;;28.54;46.21;101218.66;5076275;28;45358;-72
2023/06/21 00:12:22;;;;;;;;;3.67;3.67;;;;;28.55;46.19;101220.31;5076236;27;45320;-72
2023/06/21 00:14:47;;;;;;;;;6.00;5.00;;;;;28.55;46.31;101223.78;5076174;28;45755;-72
2023/06/21 00:17:13;;;;;;;;;5.33;4.00;;;;;28.57;45.91;101220.91;5075890;28;45366;-73
2023/06/21 00:19:39;;;;;;;;;5.00;5.00;;;;;28.57;45.81;101226.28;5076275;27;45293;-72
2023/06/21 00:22:05;;;;;;;;;4.00;4.00;;;;;28.56;46.16;101230.78;5076229;27;45354;-73
2023/06/21 00:24:30;;;;;;;;;3.00;3.00;;;;;28.56;46.28;101232.66;5076061;28;46346;-72
2023/06/21 00:26:56;;;;;;;;;4.33;4.00;;;;;28.53;46.29;101228.53;5075602;27;46973;-72
2023/06/21 00:29:21;;;;;;;;;3.33;3.33;;;;;28.58;45.76;101236.75;5076329;27;45339;-73
2023/06/21 00:31:47;;;;;;;;;5.67;5.33;;;;;28.52;46.08;101229.59;5076152;27;45228;-73
2023/06/21 00:34:12;;;;;;;;;4.00;4.00;;;;;28.59;46.36;101229.53;5076017;28;45301;-72
2023/06/21 00:36:41;;;;;;;;;3.33;3.33;;;;;28.58;46.04;101227.88;5075906;28;45275;-72
2023/06/21 00:39:06;;;;;;;;;4.33;4.00;;;;;28.58;46.15;101227.88;5076192;28;45392;-72
2023/06/21 00:41:32;;;;;;;;;4.00;3.00;;;;;28.61;46.44;101232.81;5075637;28;45489;-73
2023/06/21 00:43:58;;;;;;;;;3.33;3.33;;;;;28.61;46.48;101232.81;5074636;28;46639;-73
2023/06/21 00:46:24;;;;;;;;;3.33;3.33;;;;;28.61;45.70;101230.13;5075809;27;45369;-73
2023/06/21 00:48:49;;;;;;;;;4.00;4.00;;;;;28.60;45.83;101234.66;5076019;28;45626;-72
2023/06/21 00:51:14;;;;;;;;;5.00;5.00;;;;;28.62;46.01;101245.97;5075807;28;45389;-72
2023/06/21 00:53:41;;;;;;;;;3.00;3.00;;;;;28.60;45.78;101242.69;5091531;27;47019;-72
2023/06/21 00:56:06;;;;;;;;;3.00;3.00;;;;;28.63;45.87;101252.16;5075474;27;45309;-72
2023/06/21 00:58:33;;;;;;;;;3.67;3.67;;;;;28.60;45.85;101248.06;5075717;28;45350;-72
2023/06/21 01:00:59;;;;;;;;;3.00;3.00;;;;;28.59;45.59;101251.78;5075934;28;45163;-72
2023/06/21 01:03:26;;;;;;;;;4.00;3.33;;;;;28.64;45.82;101256.47;5075608;27;46495;-72
2023/06/21 01:06:22;;;;;;;;;4.33;2.67;;;;;28.63;45.90;101254.84;5075468;28;45395;-73
2023/06/21 01:08:56;;;;;;;;;4.33;4.33;;;;;28.65;45.37;101260.00;5075740;28;45625;-72
2023/06/21 01:11:29;;;;;;;;;3.33;3.33;;;;;28.64;46.06;101259.16;5079126;28;45351;-74
2023/06/21 01:14:13;;;;;;;;;3.00;3.00;;;;;28.64;45.91;101261.84;5078910;28;46364;-71
2023/06/21 01:16:44;;;;;;;;;3.00;3.00;;;;;28.64;45.79;101264.50;5078707;27;45342;-72
2023/06/21 01:19:40;;;;;;;;;2.00;2.00;;;;;28.66;46.29;101265.13;5079052;27;45415;-71
2023/06/21 01:22:18;;;;;;;;;4.00;4.00;;;;;28.66;45.88;101278.50;5071226;28;45279;-71
2023/06/21 01:25:04;;;;;;;;;4.00;4.00;;;;;28.66;46.11;101272.31;5078635;27;45319;-71
2023/06/21 01:28:00;;;;;;;;;5.33;3.33;;;;;28.62;45.72;101270.06;5078491;27;45442;-72
2023/06/21 01:30:28;;;;;;;;;4.00;3.00;;;;;28.63;45.58;101270.88;5035762;28;45481;-71
2023/06/21 01:32:55;;;;;;;;;3.00;3.00;;;;;28.65;45.65;101278.72;5036265;28;45385;-71
2023/06/21 01:35:22;;;;;;;;;3.67;3.00;;;;;28.65;45.66;101281.41;5035804;28;46173;-72
2023/06/21 01:37:51;;;;;;;;;1.67;1.67;;;;;28.63;45.54;101279.75;5035786;28;45295;-72
2023/06/21 01:40:16;;;;;;;;;3.00;3.00;;;;;28.63;46.21;101276.25;5036178;28;45374;-71
2023/06/21 01:42:42;;;;;;;;;4.67;4.00;;;;;28.65;45.68;101282.19;5035271;28;45430;-71
2023/06/21 01:45:08;;;;;;;;;3.00;3.00;;;;;28.63;46.09;101282.44;5035807;28;52602;-71
2023/06/21 01:47:35;;;;;;;;;2.67;2.67;;;;;28.66;45.88;101289.22;5035718;28;45965;-71
2023/06/21 01:50:05;;;;;;;;;2.67;2.67;;;;;28.64;45.84;101283.25;5035800;28;45438;-71
2023/06/21 01:52:32;;;;;;;;;3.67;2.00;;;;;28.67;46.02;101290.84;5035606;28;45463;-71
2023/06/21 01:54:57;;;;;;;;;2.00;2.00;;;;;28.63;45.94;101287.78;5035782;28;45379;-71
2023/06/21 01:57:25;;;;;;;;;2.33;2.33;;;;;28.66;45.90;101288.38;5035845;28;45534;-71
2023/06/21 01:59:52;;;;;;;;;1.67;1.67;;;;;28.66;45.85;101289.22;5035815;28;45372;-71
2023/06/21 02:02:21;;;;;;;;;3.00;3.00;;;;;28.66;45.43;101285.69;5036019;28;45513;-72
2023/06/21 02:04:46;;;;;;;;;3.00;3.00;;;;;28.67;45.90;101287.34;5035589;28;45559;-71
2023/06/21 02:07:14;;;;;;;;;3.00;3.00;;;;;28.68;45.68;101297.00;5052046;28;45389;-72
2023/06/21 02:09:41;;;;;;;;;3.33;3.33;;;;;28.69;45.76;101302.16;5078463;28;45366;-71
2023/06/21 02:12:07;;;;;;;;;3.00;3.00;;;;;28.70;45.94;101306.47;5078270;28;45277;-71
2023/06/21 02:14:33;;;;;;;;;4.00;4.00;;;;;28.67;46.06;101300.75;5077950;28;45437;-72
2023/06/21 02:16:58;;;;;;;;;3.00;3.00;;;;;28.61;45.46;101295.22;5077847;27;45797;-71
2023/06/21 02:19:24;;;;;;;;;3.33;3.33;;;;;28.70;45.77;101317.19;5078155;27;45489;-71
2023/06/21 02:21:51;;;;;;;;;3.00;3.00;;;;;28.71;45.65;101312.66;5076832;27;45431;-72
2023/06/21 02:24:17;;;;;;;;;2.33;2.33;;;;;28.70;45.67;101314.50;5077913;27;47084;-71
2023/06/21 02:26:42;;;;;;;;;2.33;2.33;;;;;28.72;45.86;101316.97;5078039;28;45471;-71
2023/06/21 02:29:07;;;;;;;;;3.00;3.00;;;;;28.72;45.97;101322.34;5078017;27;45377;-71
2023/06/21 02:31:33;;;;;;;;;2.33;2.33;;;;;28.71;45.66;101323.34;5078089;27;45424;-71
2023/06/21 02:33:59;;;;;;;;;2.00;2.00;;;;;28.71;45.73;101337.56;5077816;28;46898;-71
2023/06/21 02:36:24;;;;;;;;;3.33;3.33;;;;;28.71;45.59;101339.41;5077286;28;45403;-71
2023/06/21 02:38:49;;;;;;;;;3.33;3.33;;;;;28.72;45.85;101338.41;5078366;27;45437;-71
2023/06/21 02:41:15;;;;;;;;;3.00;3.00;;;;;28.71;46.09;101334.06;5078050;28;45385;-71
2023/06/21 02:43:40;;;;;;;;;5.00;3.00;;;;;28.70;45.92;101337.78;5077888;27;45416;-71
2023/06/21 02:46:05;;;;;;;;;2.67;2.67;;;;;28.69;45.62;101336.16;5077770;28;45321;-72
2023/06/21 02:48:31;;;;;;;;;2.67;2.67;;;;;28.70;45.56;101341.28;5077799;27;45462;-71
2023/06/21 02:50:57;;;;;;;;;2.33;2.33;;;;;28.69;45.53;101336.16;5077429;27;45223;-71
2023/06/21 02:53:22;;;;;;;;;5.00;3.00;;;;;28.70;45.45;101329.78;5077492;28;45358;-71
2023/06/21 02:55:47;;;;;;;;;2.00;2.00;;;;;28.68;45.82;101316.56;5077527;28;45343;-71
2023/06/21 02:58:12;;;;;;;;;3.00;3.00;;;;;28.67;45.79;101314.13;5077734;27;45223;-71
2023/06/21 03:00:40;;;;;;;;;2.00;2.00;;;;;28.69;45.87;101320.91;5077495;28;45316;-71
2023/06/21 03:03:06;;;;;;;;;3.33;3.33;;;;;28.71;45.69;101323.34;5077416;27;46896;-71
2023/06/21 03:05:36;;;;;;;;;3.67;2.33;;;;;28.70;45.73;101325.22;5076928;28;45288;-71
2023/06/21 03:08:04;;;;;;;;;3.33;3.33;;;;;28.70;45.79;101319.84;5077633;28;45330;-71
2023/06/21 03:10:30;;;;;;;;;2.00;2.00;;;;;28.69;45.54;101320.91;5077293;28;45444;-72
2023/06/21 03:12:55;;;;;;;;;2.67;2.67;;;;;28.69;45.70;101331.63;5077229;28;47216;-71
2023/06/21 03:15:21;;;;;;;;;4.00;3.00;;;;;28.71;45.60;101331.41;5076776;28;45564;-71
2023/06/21 03:17:46;;;;;;;;;1.00;1.00;;;;;28.70;45.66;101329.78;5077501;28;45448;-71
2023/06/21 03:20:13;;;;;;;;;3.00;3.00;;;;;28.69;45.35;101328.94;5076833;27;45615;-72
2023/06/21 03:22:43;;;;;;;;;2.33;2.33;;;;;28.69;45.14;101333.47;5077042;27;45495;-71
2023/06/21 03:25:09;;;;;;;;;3.67;3.67;;;;;28.71;45.40;101336.75;5077083;27;45335;-71
2023/06/21 03:27:35;;;;;;;;;2.00;2.00;;;;;28.71;45.57;101339.41;5077090;28;45260;-71
2023/06/21 03:30:01;;;;;;;;;5.00;4.00;;;;;28.73;45.88;101342.69;5077070;27;45362;-71
2023/06/21 03:32:27;;;;;;;;;3.00;3.00;;;;;28.71;45.84;101342.09;5076815;27;45347;-71
2023/06/21 03:34:52;;;;;;;;;2.00;2.00;;;;;28.71;45.48;101342.09;5076438;28;45350;-71
2023/06/21 03:37:18;;;;;;;;;2.00;2.00;;;;;28.70;45.48;101348.50;5076308;27;45321;-71
2023/06/21 03:39:43;;;;;;;;;2.00;2.00;;;;;28.72;45.49;101357.97;5077068;27;45260;-71
2023/06/21 03:42:08;;;;;;;;;3.00;3.00;;;;;28.67;45.78;101344.41;5076772;27;46000;-71
2023/06/21 03:44:33;;;;;;;;;3.00;3.00;;;;;28.73;45.60;101356.91;5076748;27;45364;-71
2023/06/21 03:46:59;;;;;;;;;3.33;2.00;;;;;28.74;45.56;101355.06;5076842;27;45377;-71
2023/06/21 03:49:24;;;;;;;;;4.00;3.67;;;;;28.72;45.54;101357.97;5076630;28;45398;-72
2023/06/21 03:51:49;;;;;;;;;2.67;2.67;;;;;28.66;45.56;101350.78;5076409;28;51269;-71
2023/06/21 03:54:15;;;;;;;;;2.00;2.00;;;;;28.74;45.54;101357.75;5076846;27;45335;-72
2023/06/21 03:56:40;;;;;;;;;2.00;2.00;;;;;28.72;45.47;101357.97;5076650;28;45366;-71
2023/06/21 03:59:05;;;;;;;;;3.00;3.00;;;;;28.69;45.32;101357.56;5076714;28;45334;-72
2023/06/21 04:01:31;;;;;;;;;1.33;1.33;;;;;28.70;45.69;101357.34;5076515;27;45411;-71
2023/06/21 04:03:57;;;;;;;;;3.00;3.00;;;;;28.74;45.67;101376.47;5076227;28;45286;-71
2023/06/21 04:06:22;;;;;;;;;1.00;1.00;;;;;28.72;45.68;101370.53;5076619;28;45274;-71
2023/06/21 04:08:48;;;;;;;;;4.67;3.33;;;;;28.73;45.66;101380.19;5076585;28;45506;-71
2023/06/21 04:11:14;;;;;;;;;2.67;2.67;;;;;28.73;45.35;101383.69;5076399;28;45426;-71
2023/06/21 04:13:39;;;;;;;;;3.00;3.00;;;;;28.73;45.09;101391.72;5076411;28;45288;-71
2023/06/21 04:16:05;;;;;;;;;1.33;1.33;;;;;28.72;45.29;101394.63;5075955;28;45346;-71
2023/06/21 04:18:30;;;;;;;;;2.00;2.00;;;;;28.71;45.54;101390.28;5075982;27;45478;-72
2023/06/21 04:20:55;;;;;;;;;3.00;3.00;;;;;28.72;45.52;101395.44;5076279;28;45417;-71
2023/06/21 04:23:21;;;;;;;;;4.00;3.00;;;;;28.74;45.72;101408.63;5076270;27;45373;-71
2023/06/21 04:25:47;;;;;;;;;3.00;1.67;;;;;28.74;45.38;101406.75;5076349;28;45377;-71
2023/06/21 04:28:12;;;;;;;;;3.00;3.00;;;;;28.73;45.50;101421.16;5074981;28;45440;-72
2023/06/21 04:30:37;;;;;;;;;2.00;2.00;;;;;28.74;45.20;101427.34;5075922;28;46142;-71
2023/06/21 04:33:03;;;;;;;;;3.00;3.00;;;;;28.73;45.39;101426.53;5075859;27;45445;-71
2023/06/21 04:35:28;;;;;;;;;2.33;2.33;;;;;28.73;45.40;101428.38;5075902;28;45389;-72
2023/06/21 04:37:54;;;;;;;;;2.00;2.00;;;;;28.74;45.23;101424.69;5076320;27;45346;-71
2023/06/21 04:40:21;;;;;;;;;2.00;1.67;;;;;28.75;44.98;101437.03;5075964;27;46090;-71
2023/06/21 04:42:47;;;;;;;;;1.67;1.67;;;;;28.76;45.02;101436.00;5075739;28;45351;-71
2023/06/21 04:45:14;;;;;;;;;2.00;2.00;;;;;28.76;45.44;101436.00;5075524;28;45348;-71
2023/06/21 04:47:46;;;;;;;;;2.67;2.67;;;;;28.80;44.96;101452.47;5075546;27;45307;-71
2023/06/21 04:50:12;;;;;;;;;2.00;2.00;;;;;28.82;45.39;101459.25;5075580;27;47140;-71
2023/06/21 04:52:37;;;;;;;;;3.00;3.00;;;;;28.84;45.05;101451.81;5075772;28;45338;-71
2023/06/21 04:55:05;;;;;;;;;2.00;2.00;;;;;28.84;45.37;101459.03;5075784;28;45373;-71
2023/06/21 04:57:30;;;;;;;;;3.00;2.00;;;;;28.88;44.51;101454.09;5075859;28;45347;-72
2023/06/21 04:59:55;;;;;;;;;1.33;1.33;;;;;28.93;44.70;101464.97;5075553;28;46061;-71
2023/06/21 05:02:21;;;;;;;;;1.67;1.67;;;;;28.95;45.05;101471.75;5075367;28;45423;-71
2023/06/21 05:04:46;;;;;;;;;4.00;4.00;;;;;28.95;45.22;101471.75;5075809;28;45396;-71
2023/06/21 05:07:11;;;;;;;;;2.33;2.33;;;;;29.00;44.92;101478.31;5075799;28;45414;-71
2023/06/21 05:09:37;;;;;;;;;1.00;1.00;;;;;29.01;44.80;101483.50;5075324;28;53427;-71
2023/06/21 05:12:02;;;;;;;;;3.00;1.67;;;;;29.02;44.73;101486.97;5075536;28;45500;-71
2023/06/21 05:14:27;;;;;;;;;2.00;2.00;;;;;29.06;45.13;101489.03;5075731;28;45377;-72
2023/06/21 05:16:53;;;;;;;;;4.00;3.00;;;;;29.07;45.14;101487.97;5074970;28;45594;-71
2023/06/21 05:19:18;;;;;;;;;2.33;2.33;;;;;29.12;44.92;101500.75;5075174;27;51996;-72
2023/06/21 05:21:44;;;;;;;;;2.00;2.00;;;;;29.15;44.50;101502.19;5074922;28;45291;-71
2023/06/21 05:24:10;;;;;;;;;2.67;2.67;;;;;29.18;44.66;101507.13;5075254;27;45463;-72
2023/06/21 05:26:35;;;;;;;;;2.00;2.00;;;;;29.20;44.51;101501.56;5075125;27;45434;-71
2023/06/21 05:29:00;;;;;;;;;2.00;2.00;;;;;29.22;44.60;101505.69;5075364;27;46728;-71
2023/06/21 05:31:26;;;;;;;;;2.00;2.00;;;;;29.26;44.62;101501.53;5075052;27;45352;-73
2023/06/21 05:33:51;;;;;;;;;7.00;7.00;;;;;29.26;42.94;101503.38;5075412;27;45434;-74
2023/06/21 05:36:17;;;;;;;;;9.00;9.00;;;;;29.15;43.04;101504.88;5073999;28;45598;-71
2023/06/21 05:38:42;;;;;;;;;10.00;8.67;;;;;29.07;42.69;101511.25;5075121;27;45159;-71
2023/06/21 05:41:07;;;;;;;;;7.00;7.00;;;;;29.00;43.17;101510.47;5063357;27;45511;-72
2023/06/21 05:43:33;;;;;;;;;10.00;10.00;;;;;28.92;43.30;101504.31;5074356;28;45312;-73
2023/06/21 05:45:58;;;;;;;;;9.00;9.00;;;;;28.85;42.92;101512.41;5071717;28;45422;-71
2023/06/21 05:48:23;;;;;;;;;7.67;7.33;;;;;28.79;42.80;101518.56;5070253;28;47111;-71
2023/06/21 05:50:49;;;;;;;;;10.33;10.33;;;;;28.75;43.30;101509.34;5073463;27;45386;-71
2023/06/21 05:53:15;;;;;;;;;15.67;14.33;;;;;28.72;43.17;101523.13;5074565;28;45380;-72
2023/06/21 05:55:40;;;;;;;;;16.00;14.67;;;;;28.66;43.36;101518.59;5082376;27;45486;-72
2023/06/21 05:58:06;;;;;;;;;15.00;13.75;;;;;28.63;43.88;101526.03;5077146;28;45355;-73
2023/06/21 06:00:31;;;;;;;;;16.25;12.00;;;;;28.61;43.89;101530.78;5077406;28;45381;-74
2023/06/21 06:02:56;;;;;;;;;15.00;15.00;;;;;28.62;43.58;101531.59;5069286;27;45235;-73
2023/06/21 06:05:22;;;;;;;;;17.50;14.50;;;;;28.62;43.29;101526.25;5058144;28;45338;-73
2023/06/21 06:07:47;;;;;;;;;15.67;15.00;;;;;28.71;43.04;101534.88;5058051;28;45468;-73
2023/06/21 06:10:12;;;;;;;;;12.33;10.33;;;;;28.65;42.81;101530.38;5057998;28;45291;-73
2023/06/21 06:12:38;;;;;;;;;17.67;14.00;;;;;28.54;43.21;101532.66;5057767;28;45307;-74
2023/06/21 06:15:04;;;;;;;;;16.33;16.33;;;;;28.47;43.30;101534.53;5057239;28;45495;-73
2023/06/21 06:17:30;;;;;;;;;15.00;13.33;;;;;28.38;42.89;101539.22;5057542;28;45616;-73
2023/06/21 06:19:56;;;;;;;;;18.33;15.33;;;;;28.29;43.25;101546.63;5073984;27;45386;-73
2023/06/21 06:22:21;;;;;;;;;14.00;12.33;;;;;28.24;43.52;101541.06;5078150;28;45306;-72
2023/06/21 06:24:48;;;;;;;;;13.00;13.00;;;;;28.31;43.85;101546.44;5078087;28;45236;-71
2023/06/21 06:27:14;;;;;;;;;15.67;13.00;;;;;28.37;44.01;101546.41;5077964;27;46161;-71
2023/06/21 06:29:39;;;;;;;;;12.00;9.67;;;;;28.47;43.61;101547.91;5077628;28;45423;-72
2023/06/21 06:32:05;;;;;;;;;13.00;12.00;;;;;28.56;43.19;101548.50;5078068;28;45440;-72
2023/06/21 06:34:30;;;;;;;;;11.00;11.00;;;;;28.61;43.30;101546.84;5078105;28;45422;-71
2023/06/21 06:36:55;;;;;;;;;21.33;14.00;;;;;28.71;43.18;101549.09;5077655;27;47338;-72
2023/06/21 06:39:21;;;;;;;;;12.00;12.00;;;;;28.75;43.44;101533.44;5077821;27;45382;-71
2023/06/21 06:41:46;;;;;;;;;13.67;12.33;;;;;28.84;43.52;101539.38;5078038;27;45556;-72
2023/06/21 06:44:11;;;;;;;;;11.33;9.67;;;;;28.92;43.58;101546.34;5077560;27;45501;-71
2023/06/21 06:46:37;;;;;;;;;11.00;10.00;;;;;28.99;43.26;101551.69;5077472;28;45957;-72
2023/06/21 06:49:02;;;;;;;;;12.33;9.67;;;;;29.05;43.06;101551.66;5077677;28;45440;-72
2023/06/21 06:51:27;;;;;;;;;13.00;12.00;;;;;29.11;43.63;101562.59;5077726;27;45292;-71
2023/06/21 06:53:53;;;;;;;;;10.00;10.00;;;;;29.17;43.42;101565.25;5077668;28;45365;-71
2023/06/21 06:56:18;;;;;;;;;8.00;7.67;;;;;29.23;43.17;101558.22;5077171;28;53647;-71
2023/06/21 06:58:43;;;;;;;;;8.00;8.00;;;;;29.29;43.28;101561.91;5077185;27;45320;-71
2023/06/21 07:01:09;;;;;;;;;12.33;9.00;;;;;29.34;43.01;101563.94;5077388;28;46372;-71
2023/06/21 07:03:34;;;;;;;;;11.00;11.00;;;;;29.40;43.14;101558.56;5077517;27;45401;-71
2023/06/21 07:06:00;;;;;;;;;9.00;8.00;;;;;29.44;43.13;101553.59;5077035;28;45355;-71
2023/06/21 07:08:25;;;;;;;;;11.00;9.67;;;;;29.48;43.11;101549.47;5077114;28;45351;-72
2023/06/21 07:10:51;;;;;;;;;7.67;7.67;;;;;29.52;43.04;101553.34;5077463;28;45378;-71
2023/06/21 07:13:17;;;;;;;;;8.00;8.00;;;;;29.54;43.16;101549.63;5077002;28;45574;-71
2023/06/21 07:15:43;;;;;;;;;8.00;7.00;;;;;29.60;43.05;101552.28;5076921;28;46574;-71
2023/06/21 07:18:08;;;;;;;;;9.33;9.33;;;;;29.63;42.67;101548.34;5076894;27;45284;-72
2023/06/21 07:20:34;;;;;;;;;7.00;7.00;;;;;29.66;42.86;101545.22;5077303;27;45317;-72
2023/06/21 07:23:00;;;;;;;;;9.33;7.33;;;;;29.71;42.85;101547.25;5077400;27;45307;-72
2023/06/21 07:25:25;;;;;;;;;9.67;8.33;;;;;29.66;42.89;101542.56;5076848;28;46147;-72
2023/06/21 07:27:50;;;;;;;;;6.33;6.33;;;;;29.77;42.56;101553.66;5076864;28;45369;-72
2023/06/21 07:30:16;;;;;;;;;7.67;7.67;;;;;29.82;42.52;101564.56;5077257;27;45248;-72
2023/06/21 07:32:42;;;;;;;;;7.00;7.00;;;;;29.83;42.29;101569.69;5077093;27;45365;-71
2023/06/21 07:35:08;;;;;;;;;7.00;7.00;;;;;29.87;42.39;101574.63;5076680;28;46374;-72
2023/06/21 07:37:33;;;;;;;;;7.33;7.00;;;;;29.91;42.42;101573.97;5076739;28;45464;-71
2023/06/21 07:39:59;;;;;;;;;6.00;6.00;;;;;29.94;42.25;101572.72;5077063;28;45283;-71
2023/06/21 07:42:24;;;;;;;;;7.67;6.33;;;;;29.98;42.36;101573.13;5076728;27;45326;-71
2023/06/21 07:44:52;;;;;;;;;8.00;8.00;;;;;30.00;42.50;101566.50;5076622;27;46130;-72
2023/06/21 07:47:17;;;;;;;;;7.00;6.00;;;;;30.02;42.39;101569.78;5076848;27;45280;-71
2023/06/21 07:49:43;;;;;;;;;8.00;7.00;;;;;30.03;42.57;101567.91;5076988;28;45442;-72
2023/06/21 07:52:09;;;;;;;;;6.00;6.00;;;;;30.08;42.20;101565.41;5076846;28;45572;-72
2023/06/21 07:54:35;;;;;;;;;7.00;7.00;;;;;30.09;42.06;101575.09;5076487;27;46995;-72
2023/06/21 07:57:00;;;;;;;;;6.33;6.33;;;;;30.11;42.05;101578.38;5076201;28;45426;-72
2023/06/21 07:59:25;;;;;;;;;8.00;7.00;;;;;30.12;42.31;101577.34;5076819;28;45464;-72
2023/06/21 08:01:50;;;;;;;;;7.33;5.00;;;;;30.15;41.95;101576.91;5076733;28;45406;-72
2023/06/21 08:04:16;;;;;;;;;6.00;6.00;;;;;30.17;42.18;101579.34;5076473;27;45530;-72
2023/06/21 08:06:41;;;;;;;;;7.67;6.00;;;;;30.15;41.97;101582.28;5076434;27;45503;-71
2023/06/21 08:09:06;;;;;;;;;5.67;5.67;;;;;30.18;42.18;101581.00;5076681;28;45481;-71
2023/06/21 08:11:32;;;;;;;;;5.00;5.00;;;;;30.21;41.87;101585.13;5076046;28;45577;-72
2023/06/21 08:13:57;;;;;;;;;7.33;7.00;;;;;30.21;42.04;101583.25;5076282;28;45510;-71
2023/06/21 08:16:22;;;;;;;;;4.67;4.67;;;;;30.21;41.82;101590.47;5074617;28;45351;-71
2023/06/21 08:18:48;;;;;;;;;6.00;5.00;;;;;30.25;41.59;101595.19;5075232;27;45358;-72
2023/06/21 08:21:13;;;;;;;;;5.00;5.00;;;;;30.24;41.99;101595.44;5076266;28;45408;-72
2023/06/21 08:23:38;;;;;;;;;3.33;3.33;;;;;30.25;41.91;101602.41;5076139;27;47174;-72
2023/06/21 08:26:04;;;;;;;;;9.00;7.00;;;;;30.27;41.94;101600.34;5075745;27;45315;-71
2023/06/21 08:28:30;;;;;;;;;6.00;6.00;;;;;30.27;41.88;101606.53;5076336;28;45365;-72
2023/06/21 08:30:56;;;;;;;;;6.33;6.00;;;;;30.27;41.90;101600.34;5076352;27;45480;-71
2023/06/21 08:33:21;;;;;;;;;6.67;6.00;;;;;30.29;41.95;101600.97;5076083;28;45291;-71
2023/06/21 08:35:46;;;;;;;;;8.67;5.67;;;;;30.27;41.73;101597.66;5076014;27;45363;-72
2023/06/21 08:38:12;;;;;;;;;6.00;6.00;;;;;30.32;41.70;101610.44;5075685;27;45392;-72
2023/06/21 08:40:37;;;;;;;;;5.33;5.00;;;;;30.31;41.95;101611.47;5076186;27;45353;-72
2023/06/21 08:43:03;;;;;;;;;5.67;5.00;;;;;30.31;41.98;101598.88;5075888;27;46328;-71
2023/06/21 08:45:29;;;;;;;;;4.00;4.00;;;;;30.32;41.87;101613.91;5075974;28;45359;-72
2023/06/21 08:48:01;;;;;;;;;7.00;7.00;;;;;30.33;41.77;101606.72;5076019;28;45266;-72
2023/06/21 08:50:28;;;;;;;;;5.33;4.00;;;;;30.33;41.68;101604.88;5075867;27;45486;-72
2023/06/21 08:52:54;;;;;;;;;5.33;5.33;;;;;30.35;41.29;101607.31;5075467;28;45955;-72
2023/06/21 08:55:23;;;;;;;;;5.00;5.00;;;;;30.34;41.81;101606.53;5075683;27;45351;-72
2023/06/21 08:57:50;;;;;;;;;3.67;3.67;;;;;30.36;41.77;101608.97;5075940;28;45475;-72
2023/06/21 09:00:20;;;;;;;;;0.67;0.67;;;;;30.37;41.75;101605.25;5075878;28;45469;-72
2023/06/21 09:02:53;;;;;;;;;5.33;5.33;;;;;30.37;41.63;101607.94;5075549;28;47037;-72
2023/06/21 09:05:28;;;;;;;;;5.00;4.67;;;;;30.37;41.73;101611.44;5075621;28;45413;-72
2023/06/21 09:07:56;;;;;;;;;4.33;4.33;;;;;30.36;41.63;101611.66;5075548;27;45276;-72
2023/06/21 09:10:22;;;;;;;;;5.00;5.00;;;;;30.36;41.26;101601.75;5075922;27;45373;-72
2023/06/21 09:12:49;;;;;;;;;5.00;4.67;;;;;30.38;41.44;101609.56;5075355;28;46351;-73
2023/06/21 09:15:15;;;;;;;;;4.33;3.67;;;;;30.39;41.29;101611.22;5075221;27;45313;-72
2023/06/21 09:17:42;;;;;;;;;5.00;5.00;;;;;30.40;41.49;101618.22;5075456;28;45599;-72
2023/06/21 09:20:08;;;;;;;;;5.00;4.67;;;;;30.38;41.70;101623.81;5075453;27;45444;-72
2023/06/21 09:22:35;;;;;;;;;7.00;6.00;;;;;30.39;41.64;101620.06;5075010;28;47093;-72
2023/06/21 09:25:00;;;;;;;;;6.00;5.67;;;;;30.42;41.61;101620.69;5075453;28;45353;-72
2023/06/21 09:27:26;;;;;;;;;6.67;6.00;;;;;30.43;41.64;101625.00;5075531;28;45651;-72
2023/06/21 09:29:51;;;;;;;;;4.67;4.67;;;;;30.42;41.33;101626.88;5076539;28;45535;-72
2023/06/21 09:32:17;;;;;;;;;5.00;4.00;;;;;30.40;41.03;101619.03;5079031;28;46014;-73
2023/06/21 09:34:42;;;;;;;;;7.33;5.67;;;;;30.42;41.75;101624.19;5078572;28;53530;-72
2023/06/21 09:37:07;;;;;;;;;6.67;5.33;;;;;30.41;41.58;101627.94;5078686;28;45479;-72
2023/06/21 09:39:33;;;;;;;;;5.33;4.00;;;;;30.42;41.67;101623.38;5078968;28;45406;-72
2023/06/21 09:41:58;;;;;;;;;6.00;6.00;;;;;30.42;41.74;101626.88;5078754;28;46181;-72
2023/06/21 09:44:24;;;;;;;;;5.33;5.33;;;;;30.36;41.38;101611.66;5077349;28;45402;-72
2023/06/21 09:46:57;;;;;;;;;6.67;5.00;;;;;30.40;41.52;101621.72;5078983;27;45460;-72
2023/06/21 09:49:26;;;;;;;;;7.00;6.33;;;;;30.40;41.62;101623.59;5078783;28;45331;-72
2023/06/21 09:51:51;;;;;;;;;5.00;5.00;;;;;30.42;41.44;101620.69;5078143;28;45461;-71
2023/06/21 09:54:16;;;;;;;;;6.00;6.00;;;;;30.43;41.63;101625.00;5078641;28;45304;-72
2023/06/21 09:56:42;;;;;;;;;5.33;5.33;;;;;30.41;41.46;101633.28;5078601;27;45197;-72
2023/06/21 09:59:14;;;;;;;;;5.67;5.67;;;;;30.44;41.05;101632.88;5078762;28;45358;-72
2023/06/21 10:01:47;;;;;;;;;5.00;5.00;;;;;30.40;41.45;101627.09;5078547;28;46051;-72
2023/06/21 10:04:14;;;;;;;;;4.00;4.00;;;;;30.41;41.60;101625.25;5078505;27;45328;-72
2023/06/21 10:06:50;;;;;;;;;3.00;3.00;;;;;30.44;41.57;101627.50;5078138;28;45381;-72
2023/06/21 10:09:16;;;;;;;;;5.33;4.33;;;;;30.43;41.56;101627.69;5078437;28;45363;-72
2023/06/21 10:11:43;;;;;;;;;5.00;5.00;;;;;30.43;41.21;101631.22;5078334;28;45322;-71
2023/06/21 10:14:19;;;;;;;;;5.33;5.00;;;;;30.43;41.44;101633.91;5078321;28;45403;-72
2023/06/21 10:16:48;;;;;;;;;6.00;6.00;;;;;30.44;41.27;101632.03;5078097;28;45470;-72
2023/06/21 10:19:13;;;;;;;;;5.33;5.33;;;;;30.42;41.16;101626.88;5078273;27;45373;-72
2023/06/21 10:21:39;;;;;;;;;3.00;3.00;;;;;30.42;41.34;101634.13;5077947;28;45449;-72
2023/06/21 10:24:08;;;;;;;;;4.00;4.00;;;;;30.42;41.19;101631.44;5078169;28;45358;-71
2023/06/21 10:26:34;;;;;;;;;4.67;4.67;;;;;30.42;41.82;101634.91;5078294;27;45416;-71
2023/06/21 10:29:03;;;;;;;;;4.00;4.00;;;;;30.39;41.39;101620.06;5078291;27;45374;-72
2023/06/21 10:31:30;;;;;;;;;4.00;4.00;;;;;30.42;41.37;101628.75;5077926;28;46253;-71
2023/06/21 10:33:56;;;;;;;;;4.00;4.00;;;;;30.40;41.58;101626.28;5077931;27;45296;-72
2023/06/21 10:36:30;;;;;;;;;6.67;6.00;;;;;30.39;41.49;101620.06;5077525;28;45420;-72
2023/06/21 10:39:02;;;;;;;;;3.00;2.33;;;;;30.35;41.61;101618.88;5078235;27;45452;-72
2023/06/21 10:41:29;;;;;;;;;5.33;5.33;;;;;30.39;41.39;101628.13;5076933;27;45382;-72
2023/06/21 10:43:56;;;;;;;;;5.00;5.00;;;;;30.37;41.33;101627.53;5077758;28;45358;-72
2023/06/21 10:46:22;;;;;;;;;3.67;3.00;;;;;30.37;41.46;101626.72;5077923;28;45382;-72
2023/06/21 10:48:48;;;;;;;;;4.67;4.67;;;;;30.38;41.36;101629.19;5077428;28;45345;-72
2023/06/21 10:51:14;;;;;;;;;3.00;3.00;;;;;30.37;41.35;101632.91;5077425;27;47034;-72
2023/06/21 10:53:41;;;;;;;;;7.00;7.00;;;;;30.35;41.12;101624.25;5077677;28;45347;-72
2023/06/21 10:56:07;;;;;;;;;6.00;5.00;;;;;30.36;41.79;101636.63;5077676;28;45431;-72
2023/06/21 10:58:33;;;;;;;;;4.33;4.33;;;;;30.35;41.65;101632.31;5077639;28;45354;-72
2023/06/21 11:00:59;;;;;;;;;5.67;5.67;;;;;30.34;41.76;101632.53;5076217;28;47614;-72
2023/06/21 11:03:28;;;;;;;;;4.67;4.67;;;;;30.34;41.35;101633.34;5077207;27;45452;-72
2023/06/21 11:05:57;;;;;;;;;3.00;3.00;;;;;30.32;41.54;101624.66;5077716;27;45427;-72
2023/06/21 11:08:30;;;;;;;;;5.00;5.00;;;;;30.31;41.35;101622.19;5077499;28;45258;-72
2023/06/21 11:10:56;;;;;;;;;5.33;4.33;;;;;30.30;41.21;101621.38;5077162;28;46072;-71
2023/06/21 11:13:39;;;;;;;;;5.00;4.00;;;;;30.31;41.35;101627.56;5077244;28;45504;-72
2023/06/21 11:16:16;;;;;;;;;5.33;4.33;;;;;30.29;41.70;101628.59;5075942;28;45305;-72
2023/06/21 11:18:59;;;;;;;;;5.00;5.00;;;;;30.24;41.61;101615.00;5076732;27;45332;-72
2023/06/21 11:21:35;;;;;;;;;5.33;4.00;;;;;30.26;41.70;101621.00;5076952;27;46373;-72